Time;durP1;ratioP1;P1;durP2;ratioP2;P2;SDS_P1;SDS_P2;PMS_P1;PMS_P2;Temp;Humidity;BMP_temperature;BMP_pressure;BME280_temperature;BME280_humidity;BME280_pressure;Samples;Min_cycle;Max_cycle;Signal;HPM_P1;HPM_P2
2022/04/18 00:01:32;;;;;;;5.15;2.40;;;10.30;50.40;;;;;;5008586;28;20042;-86
2022/04/18 00:04:00;;;;;;;5.78;3.20;;;10.30;50.60;;;;;;5008057;28;20053;-85
2022/04/18 00:06:28;;;;;;;5.13;2.78;;;10.20;50.70;;;;;;5006950;28;20100;-85
2022/04/18 00:08:55;;;;;;;4.68;2.78;;;10.20;50.80;;;;;;5000691;28;20034;-85
2022/04/18 00:11:22;;;;;;;5.20;2.97;;;10.20;51.00;;;;;;5006981;28;20129;-85
2022/04/18 00:13:49;;;;;;;4.55;2.75;;;10.20;51.10;;;;;;5006592;28;20487;-85
2022/04/18 00:16:17;;;;;;;5.35;2.97;;;10.10;51.10;;;;;;5007110;28;20053;-85
2022/04/18 00:18:44;;;;;;;5.20;2.72;;;10.10;51.20;;;;;;5012165;28;20069;-85
2022/04/18 00:21:15;;;;;;;4.97;3.10;;;10.10;51.20;;;;;;4995357;28;20053;-84
2022/04/18 00:23:43;;;;;;;5.22;2.58;;;10.00;51.20;;;;;;4995949;28;20034;-85
2022/04/18 00:26:11;;;;;;;4.90;2.83;;;10.00;51.20;;;;;;4995653;28;20061;-85
2022/04/18 00:28:39;;;;;;;6.10;3.05;;;10.00;51.30;;;;;;4992718;28;20507;-85
2022/04/18 00:31:07;;;;;;;5.50;3.05;;;10.00;51.30;;;;;;5010256;28;20037;-85
2022/04/18 00:33:39;;;;;;;5.82;3.40;;;9.90;51.50;;;;;;5012142;28;20069;-85
2022/04/18 00:36:09;;;;;;;;;;;9.90;51.70;;;;;;5012635;28;20050;-85
2022/04/18 00:38:38;;;;;;;6.03;3.03;;;9.80;51.70;;;;;;5012017;28;20274;-85
2022/04/18 00:41:06;;;;;;;6.03;3.20;;;9.70;51.90;;;;;;5002032;28;20065;-85
2022/04/18 00:43:49;;;;;;;5.10;2.83;;;9.70;52.00;;;;;;5013772;28;20545;-84
2022/04/18 00:46:19;;;;;;;5.30;3.20;;;9.70;52.10;;;;;;5017681;28;20046;-84
2022/04/18 00:48:49;;;;;;;6.10;2.78;;;9.60;52.20;;;;;;5033776;28;20033;-85
2022/04/18 00:51:21;;;;;;;5.15;3.33;;;9.60;52.30;;;;;;5015929;28;20050;-84
2022/04/18 00:53:53;;;;;;;6.00;3.38;;;9.60;52.50;;;;;;5008734;28;20466;-84
2022/04/18 00:56:21;;;;;;;5.68;3.53;;;9.50;52.60;;;;;;5017045;28;20140;-84
2022/04/18 00:58:50;;;;;;;5.97;3.42;;;9.50;52.80;;;;;;5014158;28;20045;-84
2022/04/18 01:01:21;;;;;;;7.95;4.03;;;9.40;52.90;;;;;;5016307;28;20054;-84
2022/04/18 01:03:52;;;;;;;6.63;3.60;;;9.40;53.00;;;;;;5016042;28;20133;-84
2022/04/18 01:06:20;;;;;;;5.88;3.15;;;9.30;53.10;;;;;;4999282;28;20043;-84
2022/04/18 01:08:54;;;;;;;6.15;3.60;;;9.30;53.30;;;;;;4992825;28;20042;-85
2022/04/18 01:11:22;;;;;;;6.28;3.63;;;9.30;53.40;;;;;;5015179;28;20042;-84
2022/04/18 01:14:15;;;;;;;6.55;4.00;;;9.20;53.40;;;;;;5000572;28;20449;-84
2022/04/18 01:17:01;;;;;;;6.53;3.72;;;9.20;53.50;;;;;;5004175;28;20184;-85
2022/04/18 01:19:46;;;;;;;5.93;3.55;;;9.20;53.60;;;;;;5001597;28;20069;-84
2022/04/18 01:22:36;;;;;;;5.63;3.25;;;9.10;53.60;;;;;;5001702;28;20050;-83
2022/04/18 01:31:02;;;;;;;5.45;3.08;;;9.10;53.90;;;;;;5014883;28;20045;-84
2022/04/18 01:33:29;;;;;;;5.70;3.00;;;9.00;54.00;;;;;;4998598;28;20057;-84
2022/04/18 01:35:59;;;;;;;7.28;3.58;;;9.00;54.10;;;;;;5011689;28;20050;-84
2022/04/18 01:38:27;;;;;;;7.03;4.13;;;9.00;54.20;;;;;;5012871;28;20132;-84
2022/04/18 01:40:54;;;;;;;6.00;3.55;;;9.00;54.30;;;;;;5011485;28;20588;-84
2022/04/18 01:43:21;;;;;;;6.10;3.75;;;8.90;54.40;;;;;;4993601;28;20081;-84
2022/04/18 01:45:56;;;;;;;6.53;3.30;;;8.90;54.50;;;;;;4999301;28;20153;-84
2022/04/18 01:48:28;;;;;;;6.70;3.97;;;8.90;54.60;;;;;;4998975;28;20071;-84
2022/04/18 01:50:56;;;;;;;5.03;2.97;;;8.80;54.70;;;;;;4998709;28;20042;-84
2022/04/18 01:53:25;;;;;;;6.47;3.22;;;8.80;54.90;;;;;;4996758;28;20065;-84
2022/04/18 01:55:53;;;;;;;6.78;3.45;;;8.80;55.00;;;;;;5014029;28;20052;-84
2022/04/18 01:58:24;;;;;;;6.63;3.20;;;8.80;55.20;;;;;;4996896;28;20056;-84
2022/04/18 02:00:52;;;;;;;4.80;2.90;;;8.70;55.30;;;;;;5018335;28;20069;-84
2022/04/18 02:03:21;;;;;;;6.18;3.45;;;8.70;55.40;;;;;;5013099;28;20058;-85
2022/04/18 02:05:52;;;;;;;4.72;2.65;;;8.70;55.60;;;;;;4993945;28;20077;-84
2022/04/18 02:08:20;;;;;;;5.18;3.28;;;8.60;55.70;;;;;;4999784;28;20070;-84
2022/04/18 02:10:47;;;;;;;5.90;3.45;;;8.60;55.80;;;;;;5010554;28;20038;-84
2022/04/18 02:13:21;;;;;;;4.97;3.15;;;8.50;56.00;;;;;;4997286;28;20058;-84
2022/04/18 02:15:57;;;;;;;5.53;3.33;;;8.50;56.20;;;;;;4995944;28;20128;-85
2022/04/18 02:18:25;;;;;;;5.80;3.35;;;8.50;56.30;;;;;;5012580;28;20055;-84
2022/04/18 02:20:53;;;;;;;7.00;3.88;;;8.40;56.40;;;;;;5014143;28;20054;-84
2022/04/18 02:23:23;;;;;;;5.72;3.25;;;8.40;56.50;;;;;;5013809;28;20142;-84
2022/04/18 02:25:50;;;;;;;5.03;2.97;;;8.40;56.60;;;;;;5013581;28;20042;-84
2022/04/18 02:28:18;;;;;;;5.90;3.20;;;8.40;56.60;;;;;;4997707;28;20046;-84
2022/04/18 02:30:50;;;;;;;5.45;3.33;;;8.40;56.60;;;;;;4998615;28;20406;-84
2022/04/18 02:33:18;;;;;;;6.30;3.15;;;8.30;56.60;;;;;;4997833;28;20514;-84
2022/04/18 02:35:47;;;;;;;5.15;3.22;;;8.40;56.70;;;;;;4994678;28;20054;-84
2022/04/18 02:38:15;;;;;;;5.20;3.08;;;8.30;56.90;;;;;;5009744;28;20061;-84
2022/04/18 02:40:45;;;;;;;5.00;3.35;;;8.30;56.90;;;;;;4997931;28;20506;-84
2022/04/18 02:43:13;;;;;;;4.82;3.22;;;8.30;56.90;;;;;;5013465;28;20045;-84
2022/04/18 02:45:46;;;;;;;6.05;2.97;;;8.30;57.10;;;;;;5013660;28;20048;-84
2022/04/18 02:48:19;;;;;;;6.22;3.42;;;8.20;57.20;;;;;;4998246;28;20136;-84
2022/04/18 02:50:50;;;;;;;5.63;3.58;;;8.20;57.30;;;;;;5013551;28;20052;-84
2022/04/18 02:53:23;;;;;;;;;;;8.10;57.40;;;;;;5014028;28;20387;-85
2022/04/18 02:55:58;;;;;;;5.20;2.95;;;8.00;58.10;;;;;;5010584;28;19922;-84
2022/04/18 02:58:25;;;;;;;5.55;3.33;;;8.00;57.80;;;;;;5007820;28;20042;-84
2022/04/18 03:00:57;;;;;;;6.25;3.28;;;8.00;57.90;;;;;;4997709;28;20153;-85
2022/04/18 03:03:26;;;;;;;6.10;3.15;;;7.90;57.90;;;;;;4997691;28;20053;-85
2022/04/18 03:05:57;;;;;;;6.93;3.58;;;7.90;58.00;;;;;;4999515;28;20041;-85
2022/04/18 03:08:27;;;;;;;5.75;3.28;;;7.90;58.20;;;;;;4997589;28;20042;-85
2022/04/18 03:11:04;;;;;;;4.82;3.10;;;7.80;58.30;;;;;;5013426;28;20046;-85
2022/04/18 03:13:36;;;;;;;5.22;3.33;;;7.80;58.40;;;;;;5010546;28;20046;-85
2022/04/18 03:16:13;;;;;;;4.68;2.88;;;7.80;58.50;;;;;;5013512;28;20502;-85
2022/04/18 03:18:41;;;;;;;6.50;3.22;;;7.80;58.50;;;;;;5010048;28;20459;-85
2022/04/18 03:21:10;;;;;;;5.53;2.90;;;7.70;58.60;;;;;;4996347;28;20085;-86
2022/04/18 03:23:39;;;;;;;6.28;3.60;;;7.70;58.80;;;;;;5013259;28;20115;-85
2022/04/18 03:26:20;;;;;;;6.75;3.20;;;7.60;58.90;;;;;;5014005;28;20147;-85
2022/04/18 03:28:57;;;;;;;4.85;2.47;;;7.60;59.00;;;;;;4998026;28;20064;-85
2022/04/18 03:31:24;;;;;;;5.25;3.15;;;7.60;59.20;;;;;;4993480;28;20122;-85
2022/04/18 03:33:51;;;;;;;7.30;3.25;;;7.60;59.30;;;;;;4974173;28;20074;-85
2022/04/18 03:42:02;;;;;;;5.75;3.10;;;7.40;59.60;;;;;;4999512;28;20077;-85
2022/04/18 03:44:29;;;;;;;5.28;3.42;;;7.40;59.90;;;;;;4981813;28;20057;-85
2022/04/18 03:46:58;;;;;;;6.75;3.70;;;7.30;60.00;;;;;;4996789;28;20132;-86
2022/04/18 03:49:25;;;;;;;4.47;2.75;;;7.30;60.20;;;;;;4996734;28;20069;-85
2022/04/18 03:51:55;;;;;;;5.97;3.70;;;7.30;60.40;;;;;;5012792;28;20046;-86
2022/04/18 03:54:22;;;;;;;6.00;3.58;;;7.20;60.50;;;;;;4980597;28;20455;-86
2022/04/18 03:56:49;;;;;;;6.55;3.50;;;7.20;60.70;;;;;;5005803;28;20140;-86
2022/04/18 03:59:36;;;;;;;6.68;3.75;;;7.20;60.80;;;;;;5005497;28;20415;-85
2022/04/18 04:02:05;;;;;;;5.78;3.20;;;7.10;61.00;;;;;;5013109;28;20054;-86
2022/04/18 04:04:36;;;;;;;6.45;3.60;;;7.10;61.10;;;;;;4981461;28;20038;-86
2022/04/18 04:07:05;;;;;;;5.45;3.35;;;7.10;61.80;;;;;;4996832;28;20058;-85
2022/04/18 04:09:34;;;;;;;5.68;3.38;;;7.10;61.40;;;;;;5012604;28;20050;-86
2022/04/18 04:12:05;;;;;;;4.75;3.30;;;7.00;61.50;;;;;;5010285;28;20042;-85
2022/04/18 04:14:42;;;;;;;7.00;3.42;;;7.00;61.60;;;;;;5012271;28;20129;-86
2022/04/18 04:17:11;;;;;;;5.82;3.28;;;6.90;61.70;;;;;;4963959;28;20139;-86
2022/04/18 04:19:42;;;;;;;5.53;2.95;;;6.80;61.80;;;;;;5006394;28;20046;-85
2022/04/18 04:22:20;;;;;;;7.18;3.83;;;6.80;61.80;;;;;;5010976;28;20487;-85
2022/04/18 04:24:57;;;;;;;6.57;3.55;;;6.80;62.00;;;;;;5012457;28;20038;-85
2022/04/18 04:27:30;;;;;;;5.65;3.38;;;6.80;62.70;;;;;;5012330;28;20133;-86
2022/04/18 04:30:01;;;;;;;6.60;3.90;;;6.80;62.20;;;;;;5012514;28;20061;-86
2022/04/18 04:32:39;;;;;;;6.45;3.33;;;6.80;62.30;;;;;;5012292;28;20046;-86
2022/04/18 04:35:06;;;;;;;4.78;2.42;;;6.80;62.40;;;;;;4993230;28;20038;-86
2022/04/18 04:37:56;;;;;;;6.55;3.70;;;6.80;62.50;;;;;;5006120;28;20038;-86
2022/04/18 04:40:42;;;;;;;6.95;3.67;;;6.70;62.50;;;;;;4981569;28;20398;-84
2022/04/18 04:43:11;;;;;;;7.28;4.13;;;6.70;62.70;;;;;;5005573;28;20042;-83
2022/04/18 04:45:49;;;;;;;5.50;3.22;;;6.70;62.70;;;;;;5011855;28;20046;-84
2022/04/18 04:48:29;;;;;;;5.38;3.47;;;6.70;62.90;;;;;;4997151;28;20054;-84
2022/04/18 04:51:00;;;;;;;5.50;3.15;;;6.70;63.00;;;;;;5011559;28;20133;-84
2022/04/18 04:53:28;;;;;;;5.63;2.60;;;6.70;63.10;;;;;;5004114;28;20049;-85
2022/04/18 04:55:56;;;;;;;6.10;3.10;;;6.70;63.20;;;;;;5011176;28;20045;-84
2022/04/18 04:58:24;;;;;;;5.20;3.13;;;6.60;63.30;;;;;;4979209;28;20225;-84
2022/04/18 05:01:01;;;;;;;4.82;2.60;;;6.60;63.30;;;;;;4999046;28;20050;-83
2022/04/18 05:03:37;;;;;;;4.65;2.70;;;6.60;63.40;;;;;;5011188;28;20042;-84
2022/04/18 05:06:07;;;;;;;5.90;2.75;;;6.70;63.50;;;;;;4995631;28;20132;-84
2022/04/18 05:08:42;;;;;;;5.47;2.92;;;6.60;63.50;;;;;;5009460;28;20069;-84
2022/04/18 05:11:10;;;;;;;5.75;3.00;;;6.60;63.50;;;;;;4995196;28;20043;-84
2022/04/18 05:13:48;;;;;;;4.95;2.72;;;6.70;63.70;;;;;;4997028;28;20136;-84
2022/04/18 05:16:19;;;;;;;5.40;3.05;;;6.70;63.70;;;;;;5014889;28;20050;-84
2022/04/18 05:19:06;;;;;;;5.25;2.88;;;6.70;63.70;;;;;;5005474;28;20062;-84
2022/04/18 05:21:34;;;;;;;5.57;3.03;;;6.70;63.80;;;;;;5008930;28;20053;-84
2022/04/18 05:24:09;;;;;;;4.93;2.88;;;6.70;63.80;;;;;;5004820;28;20104;-84
2022/04/18 05:26:37;;;;;;;4.80;2.80;;;6.80;63.80;;;;;;4985595;28;20463;-84
2022/04/18 05:29:04;;;;;;;5.15;2.75;;;6.90;63.80;;;;;;4978685;28;20045;-84
2022/04/18 05:31:32;;;;;;;5.78;3.08;;;6.90;63.80;;;;;;4999604;28;20073;-84
2022/04/18 05:34:00;;;;;;;5.05;3.13;;;6.90;63.80;;;;;;5000735;28;20387;-83
2022/04/18 05:36:53;;;;;;;;;;;7.00;63.70;;;;;;5017050;28;20544;-83
2022/04/18 05:39:56;;;;;;;5.85;2.60;;;7.10;63.50;;;;;;5002759;28;19922;-83
2022/04/18 05:42:25;;;;;;;4.88;2.38;;;7.20;63.40;;;;;;5019914;28;20390;-84
2022/04/18 05:44:57;;;;;;;4.93;2.20;;;7.30;63.30;;;;;;5014734;28;20049;-84
2022/04/18 05:47:24;;;;;;;4.68;2.47;;;7.40;63.20;;;;;;5015167;28;20034;-85
2022/04/18 05:49:52;;;;;;;3.90;2.13;;;7.50;62.90;;;;;;5015306;28;20088;-86
2022/04/18 05:52:19;;;;;;;4.10;2.30;;;7.70;62.70;;;;;;5015069;28;20046;-86
2022/04/18 05:54:51;;;;;;;2.97;2.00;;;7.80;62.50;;;;;;4999936;28;20049;-86
2022/04/18 05:57:21;;;;;;;3.50;1.85;;;7.90;62.30;;;;;;5011587;28;20046;-86
2022/04/18 05:59:52;;;;;;;3.75;2.13;;;8.00;62.10;;;;;;4991748;28;20046;-85
2022/04/18 06:02:24;;;;;;;5.13;2.45;;;8.20;61.90;;;;;;4999653;28;20088;-86
2022/04/18 06:05:08;;;;;;;2.58;1.38;;;8.30;61.70;;;;;;5015126;28;20050;-87
2022/04/18 06:07:55;;;;;;;3.65;1.60;;;8.50;61.40;;;;;;5009085;28;20046;-86
2022/04/18 06:10:42;;;;;;;3.00;1.70;;;8.60;61.10;;;;;;4985015;28;20070;-86
2022/04/18 06:13:45;;;;;;;3.97;1.60;;;8.70;60.90;;;;;;5008826;28;20502;-87
2022/04/18 06:16:17;;;;;;;2.95;1.70;;;8.90;60.70;;;;;;5011880;28;20145;-86
2022/04/18 06:18:51;;;;;;;2.95;1.77;;;9.00;60.40;;;;;;4999218;28;20053;-86
2022/04/18 06:21:21;;;;;;;4.22;1.77;;;9.10;60.20;;;;;;5014724;28;20066;-86
2022/04/18 06:23:50;;;;;;;3.90;1.95;;;9.30;60.00;;;;;;4983077;28;20053;-86
2022/04/18 06:26:40;;;;;;;3.40;1.70;;;9.30;59.80;;;;;;5014648;28;20414;-86
2022/04/18 06:29:08;;;;;;;2.85;1.50;;;9.50;59.70;;;;;;5013922;28;20065;-87
2022/04/18 06:31:41;;;;;;;3.97;1.75;;;9.60;59.50;;;;;;5014332;28;20038;-89
2022/04/18 06:34:14;;;;;;;2.55;1.25;;;9.70;59.40;;;;;;5014492;28;20520;-87
2022/04/18 06:36:43;;;;;;;2.88;1.33;;;9.80;59.20;;;;;;5013869;28;20056;-87
2022/04/18 06:39:20;;;;;;;3.55;1.50;;;9.90;59.00;;;;;;4999732;28;20046;-89
2022/04/18 06:41:55;;;;;;;;;;;10.10;58.90;;;;;;5015266;28;20474;-89
2022/04/18 06:44:25;;;;;;;3.53;1.38;;;10.10;58.80;;;;;;4998474;28;20012;-89
2022/04/18 06:46:56;;;;;;;3.88;1.40;;;10.20;58.50;;;;;;5014157;28;20064;-89
2022/04/18 06:49:50;;;;;;;2.50;1.20;;;10.30;58.30;;;;;;4998495;28;20058;-89
2022/04/18 06:52:49;;;;;;;2.97;1.50;;;10.50;58.00;;;;;;5014697;28;20048;-89
2022/04/18 06:58:30;;;;;;;2.72;1.35;;;10.70;57.40;;;;;;5013779;28;20133;-89
2022/04/18 07:01:01;;;;;;;3.05;1.48;;;10.80;57.30;;;;;;5014020;28;20119;-89
2022/04/18 07:03:29;;;;;;;2.53;1.25;;;10.90;57.10;;;;;;5014091;28;20046;-89
2022/04/18 07:05:56;;;;;;;3.17;1.33;;;11.00;56.90;;;;;;5014076;28;20050;-90
2022/04/18 07:08:23;;;;;;;3.58;1.52;;;11.10;56.80;;;;;;5013874;28;20514;-88
2022/04/18 07:10:53;;;;;;;2.63;1.30;;;11.20;56.70;;;;;;5014123;28;20048;-89
2022/04/18 07:13:20;;;;;;;3.67;1.60;;;11.20;56.50;;;;;;5013841;28;20097;-89
2022/04/18 07:15:49;;;;;;;2.38;1.27;;;11.30;56.40;;;;;;5013768;28;20038;-89
2022/04/18 07:18:18;;;;;;;2.58;1.30;;;11.40;56.30;;;;;;4997623;28;20052;-90
2022/04/18 07:20:52;;;;;;;3.35;1.50;;;11.50;56.10;;;;;;4997115;28;20045;-92
2022/04/18 07:23:22;;;;;;;3.10;1.40;;;11.60;56.00;;;;;;5013672;28;20502;-92
2022/04/18 07:25:55;;;;;;;3.03;1.02;;;11.70;55.90;;;;;;4998569;28;20046;-88
2022/04/18 07:28:30;;;;;;;3.00;1.33;;;11.70;55.70;;;;;;5013777;28;20050;-89
2022/04/18 07:30:58;;;;;;;3.05;1.23;;;11.80;55.60;;;;;;4986639;28;20068;-88
2022/04/18 07:33:25;;;;;;;2.67;1.15;;;11.90;55.60;;;;;;5013311;28;20049;-89
2022/04/18 07:35:53;;;;;;;2.40;1.05;;;12.00;55.50;;;;;;5013526;28;20104;-90
2022/04/18 07:41:09;;;;;;;3.60;1.40;;;12.20;55.20;;;;;;5010327;28;20042;-90
2022/04/18 07:43:42;;;;;;;2.78;1.30;;;12.30;55.00;;;;;;4983248;28;20137;-89
2022/04/18 07:46:12;;;;;;;2.92;1.30;;;12.40;54.90;;;;;;5013331;28;20421;-89
2022/04/18 07:48:39;;;;;;;3.30;1.52;;;12.50;54.80;;;;;;4996905;28;20045;-89
2022/04/18 07:54:19;;;;;;;2.70;1.05;;;12.70;54.60;;;;;;5009180;28;20070;-88
2022/04/18 07:56:47;;;;;;;2.17;1.00;;;12.80;54.30;;;;;;5012704;28;20050;-86
2022/04/18 07:59:25;;;;;;;2.35;1.08;;;12.90;54.30;;;;;;5013286;28;20041;-88
2022/04/18 08:01:52;;;;;;;2.28;0.82;;;13.10;54.10;;;;;;5012869;28;20053;-88
2022/04/18 08:04:42;;;;;;;2.08;0.90;;;13.20;53.90;;;;;;4986722;28;20118;-88
2022/04/18 08:07:13;;;;;;;1.80;0.77;;;13.30;53.70;;;;;;4989598;28;20046;-88
2022/04/18 08:09:41;;;;;;;3.17;0.93;;;13.40;53.50;;;;;;5012800;28;20042;-88
2022/04/18 08:12:12;;;;;;;2.05;0.88;;;13.50;53.30;;;;;;5009410;28;20046;-89
2022/04/18 08:15:17;;;;;;;1.25;0.70;;;13.60;53.20;;;;;;4973350;28;20085;-88
2022/04/18 08:17:45;;;;;;;2.42;0.82;;;13.70;53.00;;;;;;4975978;28;20137;-87
2022/04/18 08:20:33;;;;;;;2.55;1.10;;;13.80;52.80;;;;;;4985242;28;20083;-87
2022/04/18 08:23:09;;;;;;;2.28;0.70;;;14.00;52.70;;;;;;5012981;28;20049;-89
2022/04/18 08:25:55;;;;;;;1.65;0.60;;;14.10;52.50;;;;;;5012834;28;20048;-87
2022/04/18 08:28:35;;;;;;;1.67;0.73;;;14.20;52.40;;;;;;5012524;28;20042;-87
2022/04/18 08:31:03;;;;;;;1.73;0.68;;;14.30;52.20;;;;;;5012547;28;20412;-87
2022/04/18 08:33:49;;;;;;;1.63;0.82;;;14.40;52.00;;;;;;5012774;28;20049;-87
2022/04/18 08:36:16;;;;;;;2.17;0.82;;;14.50;51.60;;;;;;4996436;28;20114;-86
2022/04/18 08:38:43;;;;;;;1.85;0.80;;;14.60;51.50;;;;;;4985594;28;20128;-88
2022/04/18 08:41:44;;;;;;;2.75;1.02;;;14.70;51.40;;;;;;5012398;28;20133;-88
2022/04/18 08:44:19;;;;;;;1.63;0.68;;;14.80;51.30;;;;;;5012857;28;20514;-89
2022/04/18 08:53:28;;;;;;;1.55;0.50;;;15.20;50.80;;;;;;5012003;28;20046;-85
2022/04/18 08:55:56;;;;;;;2.22;0.60;;;15.30;50.70;;;;;;5009003;28;20049;-86
2022/04/18 08:58:28;;;;;;;1.48;0.55;;;15.40;50.60;;;;;;5022953;28;20042;-86
2022/04/18 09:00:59;;;;;;;1.80;0.70;;;15.50;50.40;;;;;;4995903;28;20057;-91
2022/04/18 09:03:52;;;;;;;1.90;0.80;;;15.60;50.30;;;;;;5000038;28;20060;-91
2022/04/18 09:06:29;;;;;;;2.00;0.80;;;15.70;50.00;;;;;;4995634;28;20050;-87
2022/04/18 09:09:07;;;;;;;2.35;0.70;;;15.80;49.80;;;;;;4999848;28;20041;-88
2022/04/18 09:11:40;;;;;;;1.30;0.70;;;15.90;49.90;;;;;;5001355;28;20073;-87
2022/04/18 09:14:15;;;;;;;2.03;0.80;;;15.90;49.70;;;;;;4998309;28;20046;-88
2022/04/18 09:16:51;;;;;;;2.22;0.70;;;16.00;49.60;;;;;;4995895;28;20462;-87
2022/04/18 09:19:37;;;;;;;2.90;0.88;;;16.00;49.40;;;;;;5004417;28;20142;-88
2022/04/18 09:22:09;;;;;;;2.40;0.67;;;16.10;49.40;;;;;;4999481;28;20046;-88
2022/04/18 09:24:47;;;;;;;1.52;0.70;;;16.10;49.30;;;;;;4999349;28;20046;-88
2022/04/18 09:27:31;;;;;;;2.05;0.52;;;16.20;49.70;;;;;;4981239;28;20130;-87
2022/04/18 09:30:10;;;;;;;1.50;0.60;;;16.30;48.90;;;;;;4993922;28;20049;-87
2022/04/18 09:33:06;;;;;;;3.55;0.85;;;16.40;48.90;;;;;;4997565;28;20046;-87
2022/04/18 09:35:40;;;;;;;2.75;0.80;;;16.50;48.60;;;;;;5009754;28;20351;-88
2022/04/18 09:38:09;;;;;;;1.63;0.50;;;16.50;48.50;;;;;;4989192;28;20133;-89
2022/04/18 09:40:58;;;;;;;1.67;0.80;;;16.60;48.30;;;;;;5002319;28;20068;-88
2022/04/18 09:43:58;;;;;;;2.28;0.80;;;16.70;48.20;;;;;;5009740;28;20129;-84
2022/04/18 09:46:30;;;;;;;2.10;0.80;;;16.80;47.90;;;;;;5013321;28;20045;-84
2022/04/18 09:49:37;;;;;;;1.52;0.70;;;16.90;47.90;;;;;;4998398;28;20045;-84
2022/04/18 09:52:11;;;;;;;1.52;0.70;;;17.00;47.70;;;;;;5005831;28;20450;-84
2022/04/18 09:54:58;;;;;;;3.10;0.70;;;17.00;47.60;;;;;;5013765;28;20402;-84
2022/04/18 09:57:32;;;;;;;2.20;0.80;;;17.20;47.40;;;;;;5006972;28;20052;-93
2022/04/18 10:00:02;;;;;;;2.17;0.75;;;17.30;47.30;;;;;;4997298;28;20050;-85
2022/04/18 10:02:46;;;;;;;1.77;0.60;;;17.30;47.10;;;;;;4993506;28;20153;-86
2022/04/18 10:05:21;;;;;;;1.83;0.60;;;17.50;46.60;;;;;;4999397;28;20530;-85
2022/04/18 10:07:49;;;;;;;1.27;0.70;;;17.60;46.40;;;;;;5010477;28;20129;-85
2022/04/18 10:10:17;;;;;;;1.17;0.60;;;17.70;46.30;;;;;;5014255;28;20652;-82
2022/04/18 10:13:16;;;;;;;1.65;0.70;;;17.80;46.10;;;;;;5012903;28;20046;-82
2022/04/18 10:15:48;;;;;;;1.10;0.60;;;18.00;45.80;;;;;;4996823;28;20498;-82
2022/04/18 10:18:16;;;;;;;1.63;0.70;;;18.10;45.70;;;;;;5012195;28;20049;-80
2022/04/18 10:21:08;;;;;;;1.58;0.57;;;18.10;45.10;;;;;;5013653;28;20622;-79
2022/04/18 10:23:56;;;;;;;1.23;0.70;;;18.20;44.70;;;;;;5006907;28;20380;-78
2022/04/18 10:26:33;;;;;;;1.02;0.50;;;18.50;44.60;;;;;;5010811;28;20042;-82
2022/04/18 10:29:07;;;;;;;1.63;0.50;;;18.70;44.20;;;;;;5010899;28;20145;-78
2022/04/18 10:31:39;;;;;;;1.75;0.70;;;18.80;44.00;;;;;;5012759;28;20050;-80
2022/04/18 10:34:07;;;;;;;1.60;0.50;;;18.60;44.00;;;;;;5003878;28;20514;-81
2022/04/18 10:36:34;;;;;;;1.92;0.82;;;18.50;44.20;;;;;;5009525;28;20089;-83
2022/04/18 10:39:06;;;;;;;1.63;0.50;;;18.40;44.20;;;;;;5013165;28;20129;-82
2022/04/18 10:41:38;;;;;;;1.83;0.50;;;18.40;44.30;;;;;;5012890;28;20126;-80
2022/04/18 10:44:10;;;;;;;1.23;0.50;;;18.40;44.20;;;;;;5001328;28;20054;-82
2022/04/18 10:46:42;;;;;;;1.88;0.40;;;18.60;43.80;;;;;;5013066;28;20050;-79
2022/04/18 10:49:23;;;;;;;0.63;0.40;;;19.20;43.10;;;;;;5012928;28;20070;-81
2022/04/18 10:51:52;;;;;;;1.55;0.60;;;19.60;42.50;;;;;;5013189;28;20046;-81
2022/04/18 10:54:21;;;;;;;1.65;0.65;;;19.60;42.10;;;;;;5012879;28;20490;-82
2022/04/18 10:57:03;;;;;;;1.10;0.40;;;19.40;42.00;;;;;;5011910;28;20041;-80
2022/04/18 10:59:32;;;;;;;1.38;0.60;;;19.60;41.80;;;;;;5012013;28;20034;-80
2022/04/18 11:02:03;;;;;;;0.88;0.38;;;20.00;41.40;;;;;;5009523;28;20066;-80
2022/04/18 11:04:33;;;;;;;1.35;0.60;;;20.40;40.70;;;;;;5001512;28;20052;-82
2022/04/18 11:07:05;;;;;;;1.13;0.57;;;20.80;40.20;;;;;;4998602;28;20046;-78
2022/04/18 11:09:36;;;;;;;0.82;0.38;;;20.70;39.80;;;;;;5013255;28;20260;-79
2022/04/18 11:12:08;;;;;;;1.05;0.45;;;20.10;40.20;;;;;;5014526;28;20037;-80
2022/04/18 11:14:38;;;;;;;1.90;0.40;;;19.70;40.70;;;;;;5014413;28;20041;-81
2022/04/18 11:17:09;;;;;;;0.93;0.43;;;19.40;41.00;;;;;;5009649;28;20068;-83
2022/04/18 11:19:38;;;;;;;1.70;0.65;;;19.30;41.20;;;;;;5001080;28;20046;-81
2022/04/18 11:22:17;;;;;;;1.33;0.50;;;19.10;41.20;;;;;;5014077;28;20121;-80
2022/04/18 11:24:49;;;;;;;2.15;0.50;;;19.00;41.20;;;;;;5012937;28;20588;-78
2022/04/18 11:27:21;;;;;;;1.83;0.82;;;19.90;40.60;;;;;;5012331;28;20119;-83
2022/04/18 11:29:56;;;;;;;;;;;21.00;39.20;;;;;;4995424;28;20137;-82
2022/04/18 11:32:26;;;;;;;1.75;0.70;;;21.50;37.70;;;;;;5012642;28;19927;-83
2022/04/18 11:34:54;;;;;;;1.35;0.70;;;22.00;37.40;;;;;;5012396;28;20052;-83
2022/04/18 11:37:24;;;;;;;3.08;0.60;;;22.40;37.00;;;;;;5009019;28;20046;-80
2022/04/18 11:39:56;;;;;;;1.83;0.82;;;22.80;36.70;;;;;;5008509;28;20050;-81
2022/04/18 11:42:25;;;;;;;1.42;0.88;;;23.10;36.40;;;;;;5012065;28;20053;-81
2022/04/18 11:44:55;;;;;;;1.20;0.60;;;23.30;36.30;;;;;;4992693;28;20057;-81
2022/04/18 11:47:44;;;;;;;1.13;0.60;;;23.50;36.30;;;;;;4996903;28;20042;-81
2022/04/18 11:50:11;;;;;;;1.20;0.70;;;23.50;36.30;;;;;;5008252;28;20100;-77
2022/04/18 11:52:40;;;;;;;2.25;1.00;;;23.70;36.30;;;;;;4996216;28;20096;-79
2022/04/18 11:55:11;;;;;;;2.22;0.98;;;23.90;36.10;;;;;;4999162;28;20499;-81
2022/04/18 11:57:40;;;;;;;1.90;0.85;;;23.90;36.00;;;;;;5011664;28;20077;-82
2022/04/18 12:00:10;;;;;;;2.00;1.00;;;23.90;35.80;;;;;;5011988;28;20042;-81
2022/04/18 12:08:18;;;;;;;1.63;0.60;;;24.20;35.90;;;;;;5013481;28;20088;-85
2022/04/18 12:10:46;;;;;;;1.10;0.70;;;23.60;36.00;;;;;;5012304;28;20038;-82
2022/04/18 12:13:14;;;;;;;1.80;0.80;;;22.70;36.50;;;;;;5010964;28;20052;-82
2022/04/18 12:15:43;;;;;;;2.70;0.65;;;22.00;37.10;;;;;;5022474;28;20053;-84
2022/04/18 12:18:15;;;;;;;1.75;0.80;;;21.40;37.80;;;;;;5011431;28;20064;-81
2022/04/18 12:20:47;;;;;;;2.30;0.90;;;21.10;37.80;;;;;;4996793;28;20073;-82
2022/04/18 12:23:23;;;;;;;2.10;1.25;;;20.70;37.70;;;;;;4995511;28;20486;-78
2022/04/18 12:25:57;;;;;;;2.15;0.88;;;20.50;38.10;;;;;;5004450;28;20038;-84
2022/04/18 12:28:26;;;;;;;1.40;0.57;;;20.30;38.10;;;;;;4993100;28;20042;-80
2022/04/18 12:30:54;;;;;;;1.40;0.70;;;20.20;38.40;;;;;;5008382;28;20046;-81
2022/04/18 12:33:25;;;;;;;1.80;0.73;;;20.20;38.50;;;;;;5026344;28;20045;-87
2022/04/18 12:35:57;;;;;;;1.92;0.77;;;20.10;38.30;;;;;;5011733;28;20521;-84
2022/04/18 12:38:35;;;;;;;1.47;0.70;;;20.00;38.40;;;;;;4995321;28;20071;-85
2022/04/18 12:41:03;;;;;;;1.70;0.65;;;20.00;38.50;;;;;;5014107;28;20049;-83
2022/04/18 12:43:36;;;;;;;2.25;0.80;;;20.00;39.20;;;;;;5015447;28;20136;-84
2022/04/18 12:46:09;;;;;;;1.67;0.80;;;19.90;38.40;;;;;;5015822;28;20042;-83
2022/04/18 12:48:37;;;;;;;1.45;0.52;;;19.90;38.30;;;;;;5015808;28;20042;-82
2022/04/18 12:51:07;;;;;;;1.23;0.50;;;20.00;38.40;;;;;;4998966;28;20061;-81
2022/04/18 12:53:54;;;;;;;1.17;0.50;;;20.00;38.40;;;;;;5013904;28;20038;-86
2022/04/18 12:56:23;;;;;;;1.58;0.52;;;20.00;38.30;;;;;;5015357;28;20108;-83
2022/04/18 12:59:04;;;;;;;2.08;0.68;;;20.00;38.10;;;;;;5011821;28;20057;-81
2022/04/18 13:01:36;;;;;;;1.10;0.60;;;20.10;37.90;;;;;;5002981;28;20069;-81
2022/04/18 13:04:04;;;;;;;;;;;20.10;37.80;;;;;;4999343;28;20452;-85
2022/04/18 13:06:33;;;;;;;1.58;0.60;;;20.20;37.80;;;;;;5006997;28;20020;-81
2022/04/18 13:09:08;;;;;;;0.93;0.50;;;20.20;37.90;;;;;;4982183;28;20034;-84
2022/04/18 13:11:36;;;;;;;1.60;0.60;;;20.20;37.90;;;;;;4981030;28;20097;-82
2022/04/18 13:14:04;;;;;;;1.60;0.70;;;20.10;38.70;;;;;;4992944;28;20038;-86
2022/04/18 13:16:31;;;;;;;1.75;0.63;;;20.00;38.10;;;;;;4982418;28;20121;-82
2022/04/18 13:19:01;;;;;;;1.25;0.50;;;20.10;38.20;;;;;;4982227;28;20085;-83
2022/04/18 13:21:29;;;;;;;1.30;0.55;;;20.10;38.00;;;;;;5004061;28;20104;-82
2022/04/18 13:24:02;;;;;;;1.30;0.68;;;20.20;38.00;;;;;;4985636;28;20058;-87
2022/04/18 13:26:31;;;;;;;1.23;0.50;;;20.20;37.80;;;;;;5000073;28;20132;-87
2022/04/18 13:28:58;;;;;;;1.02;0.38;;;20.20;37.90;;;;;;4995982;28;20042;-83
2022/04/18 13:31:26;;;;;;;1.05;0.35;;;20.10;37.90;;;;;;4998475;28;20042;-86
2022/04/18 13:33:54;;;;;;;0.80;0.40;;;20.10;38.00;;;;;;4979133;28;20120;-85
2022/04/18 13:36:33;;;;;;;0.95;0.40;;;20.10;38.00;;;;;;4992435;28;20073;-86
2022/04/18 13:39:04;;;;;;;1.15;0.43;;;20.10;38.00;;;;;;4994676;28;20057;-85
2022/04/18 13:41:32;;;;;;;1.27;0.50;;;20.10;37.90;;;;;;4993479;28;20125;-81
2022/04/18 13:44:00;;;;;;;1.48;0.43;;;20.00;37.80;;;;;;4998046;28;20060;-85
2022/04/18 13:46:29;;;;;;;2.03;0.80;;;20.00;37.80;;;;;;4992854;28;20045;-85
2022/04/18 13:48:57;;;;;;;2.03;0.65;;;20.00;37.70;;;;;;4984776;28;20149;-88
2022/04/18 13:51:27;;;;;;;1.02;0.40;;;19.90;37.70;;;;;;5006185;28;20088;-84
2022/04/18 13:53:57;;;;;;;0.77;0.40;;;19.80;37.70;;;;;;4998216;28;20073;-86
2022/04/18 13:56:29;;;;;;;0.80;0.40;;;19.80;37.80;;;;;;4982003;28;20038;-83